createdAt,value
2022-08-16T00:01:59.849Z,12.80
2022-08-16T00:04:30.164Z,12.60
2022-08-16T00:07:02.206Z,12.55
2022-08-16T00:09:30.780Z,13.68
2022-08-16T00:12:00.496Z,11.82
2022-08-16T00:14:33.633Z,12.40
2022-08-16T00:17:16.107Z,13.43
2022-08-16T00:19:46.207Z,14.00
2022-08-16T00:22:16.630Z,13.63
2022-08-16T00:24:46.703Z,12.65
2022-08-16T00:27:14.566Z,13.02
2022-08-16T00:29:44.416Z,12.57
2022-08-16T00:32:17.982Z,14.15
2022-08-16T00:34:53.096Z,13.60
2022-08-16T00:37:57.688Z,13.85
2022-08-16T00:40:34.755Z,14.20
2022-08-16T00:43:16.992Z,14.07
2022-08-16T00:46:01.305Z,13.43
2022-08-16T00:48:50.725Z,13.83
2022-08-16T00:51:21.902Z,13.55
2022-08-16T00:53:50.084Z,14.23
2022-08-16T00:56:58.135Z,13.48
2022-08-16T00:59:28.925Z,13.18
2022-08-16T01:01:59.181Z,14.35
2022-08-16T01:04:31.865Z,13.20
2022-08-16T01:07:03.311Z,13.57
2022-08-16T01:09:42.752Z,14.00
2022-08-16T01:12:11.370Z,14.93
2022-08-16T01:14:59.913Z,14.55
2022-08-16T01:17:30.150Z,13.68
2022-08-16T01:20:23.592Z,14.43
2022-08-16T01:22:58.911Z,14.52
2022-08-16T01:25:37.652Z,13.88
2022-08-16T01:28:20.000Z,13.43
2022-08-16T01:30:55.307Z,14.20
2022-08-16T01:33:23.944Z,14.93
2022-08-16T01:36:00.581Z,14.75
2022-08-16T01:38:34.432Z,13.82
2022-08-16T01:41:19.356Z,14.52
2022-08-16T01:43:53.642Z,15.15
2022-08-16T01:46:40.183Z,13.70
2022-08-16T01:49:45.719Z,15.25
2022-08-16T01:52:29.252Z,15.45
2022-08-16T01:55:17.613Z,14.48
2022-08-16T01:57:53.150Z,15.05
2022-08-16T02:00:28.847Z,14.77
2022-08-16T02:02:58.959Z,14.75
2022-08-16T02:05:31.146Z,14.95
2022-08-16T02:08:02.353Z,13.95
2022-08-16T02:10:33.889Z,13.93
2022-08-16T02:13:05.294Z,13.00
2022-08-16T02:15:42.516Z,14.73
2022-08-16T02:18:13.262Z,14.95
2022-08-16T02:20:53.446Z,14.57
2022-08-16T02:23:27.146Z,13.60
2022-08-16T02:25:59.687Z,15.02
2022-08-16T02:28:30.086Z,14.75
2022-08-16T02:31:05.005Z,15.13
2022-08-16T02:33:44.173Z,14.35
2022-08-16T02:36:47.716Z,14.73
2022-08-16T02:39:22.373Z,14.13
2022-08-16T02:41:53.082Z,14.43
2022-08-16T02:44:23.323Z,14.02
2022-08-16T02:46:55.186Z,16.00
2022-08-16T02:49:58.091Z,14.82
2022-08-16T02:52:17.354Z,14.57
2022-08-16T02:54:56.638Z,14.60
2022-08-16T02:57:28.888Z,16.00
2022-08-16T02:59:58.429Z,15.77
2022-08-16T03:02:31.954Z,15.18
2022-08-16T03:05:04.803Z,15.98
2022-08-16T03:07:37.022Z,14.82
2022-08-16T03:10:11.290Z,15.35
2022-08-16T03:12:55.906Z,14.50
2022-08-16T03:15:25.592Z,16.55
2022-08-16T03:18:02.753Z,14.20
2022-08-16T03:20:44.757Z,15.95
2022-08-16T03:23:26.555Z,16.25
2022-08-16T03:26:03.161Z,16.08
2022-08-16T03:28:31.277Z,15.20
2022-08-16T03:30:58.669Z,15.35
2022-08-16T03:33:30.962Z,15.10
2022-08-16T03:36:29.970Z,15.75
2022-08-16T03:38:56.137Z,14.68
2022-08-16T03:41:29.517Z,15.07
2022-08-16T03:44:45.055Z,14.48
2022-08-16T03:47:04.903Z,15.60
2022-08-16T03:49:37.696Z,16.08
2022-08-16T03:52:07.906Z,15.98
2022-08-16T03:54:39.142Z,16.27
2022-08-16T03:57:24.533Z,14.32
2022-08-16T04:00:12.347Z,14.75
2022-08-16T04:03:08.641Z,14.35
2022-08-16T04:05:46.709Z,15.13
2022-08-16T04:08:23.291Z,15.68
2022-08-16T04:10:54.389Z,15.57
2022-08-16T04:14:01.658Z,15.20
2022-08-16T04:16:27.590Z,16.60
2022-08-16T04:19:18.554Z,16.67
2022-08-16T04:21:56.781Z,15.40
2022-08-16T04:24:28.702Z,14.32
2022-08-16T04:26:56.805Z,13.90
2022-08-16T04:29:46.242Z,14.93
2022-08-16T04:32:15.024Z,16.25
2022-08-16T04:34:50.076Z,15.73
2022-08-16T04:37:20.176Z,16.27
2022-08-16T04:39:57.289Z,14.50
2022-08-16T04:42:29.684Z,15.73
2022-08-16T04:45:08.147Z,15.55
2022-08-16T04:47:36.341Z,17.80
2022-08-16T04:50:18.272Z,15.30
2022-08-16T04:53:26.213Z,17.20
2022-08-16T04:56:01.467Z,17.17
2022-08-16T04:58:44.723Z,16.08
2022-08-16T05:01:20.554Z,16.63
2022-08-16T05:03:59.984Z,16.10
2022-08-16T05:06:42.055Z,17.27
2022-08-16T05:09:23.152Z,16.48
2022-08-16T05:11:57.919Z,16.38
2022-08-16T05:14:45.880Z,16.83
2022-08-16T05:17:24.893Z,15.85
2022-08-16T05:19:58.684Z,15.82
2022-08-16T05:25:10.298Z,14.55
2022-08-16T05:27:46.285Z,15.43
2022-08-16T05:30:35.178Z,19.50
2022-08-16T05:33:16.190Z,16.42
2022-08-16T05:35:55.089Z,18.40
2022-08-16T05:38:39.396Z,13.85
2022-08-16T05:41:13.921Z,16.25
2022-08-16T05:43:46.836Z,15.07
2022-08-16T05:46:28.673Z,16.02
2022-08-16T05:49:06.118Z,17.48
2022-08-16T05:51:41.468Z,15.40
2022-08-16T05:54:13.840Z,18.52
2022-08-16T05:59:15.736Z,17.08
2022-08-16T06:01:51.826Z,15.93
2022-08-16T06:04:35.481Z,14.75
2022-08-16T06:07:08.867Z,14.60
2022-08-16T06:09:43.560Z,14.07
2022-08-16T06:12:27.964Z,18.35
2022-08-16T06:15:07.629Z,16.30
2022-08-16T06:17:43.396Z,13.60
2022-08-16T06:20:23.443Z,15.98
2022-08-16T06:23:04.059Z,15.40
2022-08-16T06:26:15.771Z,14.85
2022-08-16T06:28:46.963Z,13.43
2022-08-16T06:31:25.002Z,16.45
2022-08-16T06:33:56.349Z,14.50
2022-08-16T06:36:26.812Z,13.68
2022-08-16T06:39:12.858Z,13.95
2022-08-16T06:41:59.399Z,12.88
2022-08-16T06:44:50.757Z,13.75
2022-08-16T06:47:52.799Z,13.90
2022-08-16T06:50:29.699Z,15.00
2022-08-16T06:53:09.010Z,13.15
2022-08-16T06:55:57.585Z,14.02
2022-08-16T06:58:36.911Z,12.43
2022-08-16T07:01:14.863Z,13.30
2022-08-16T07:03:55.542Z,15.88
2022-08-16T07:06:28.402Z,12.10
2022-08-16T07:09:02.925Z,12.73
2022-08-16T07:11:46.165Z,12.57
2022-08-16T07:14:28.525Z,13.35
2022-08-16T07:17:03.570Z,13.10
2022-08-16T07:20:02.778Z,15.20
2022-08-16T07:22:37.051Z,15.02
2022-08-16T07:25:28.327Z,12.95
2022-08-16T07:27:55.957Z,13.75
2022-08-16T07:30:45.792Z,14.07
2022-08-16T07:33:53.365Z,13.60
2022-08-16T07:36:30.888Z,14.55
2022-08-16T07:39:01.707Z,12.20
2022-08-16T07:41:35.733Z,13.60
2022-08-16T07:44:16.176Z,13.25
2022-08-16T07:46:46.788Z,12.52
2022-08-16T07:49:21.065Z,11.68
2022-08-16T07:51:54.502Z,12.48
2022-08-16T07:54:38.020Z,12.00
2022-08-16T07:57:18.987Z,11.85
2022-08-16T07:59:48.465Z,14.13
2022-08-16T08:02:21.017Z,13.57
2022-08-16T08:04:57.946Z,12.75
2022-08-16T08:07:32.368Z,12.98
2022-08-16T08:10:05.674Z,13.00
2022-08-16T08:12:40.406Z,13.30
2022-08-16T08:15:12.929Z,11.65
2022-08-16T08:17:43.972Z,12.27
2022-08-16T08:20:28.192Z,13.98
2022-08-16T08:23:03.341Z,12.43
2022-08-16T08:25:55.279Z,11.80
2022-08-16T08:28:31.830Z,12.13
2022-08-16T08:31:03.621Z,11.38
2022-08-16T08:33:35.485Z,11.73
2022-08-16T08:36:07.596Z,10.82
2022-08-16T08:38:44.127Z,11.50
2022-08-16T08:41:15.523Z,11.02
2022-08-16T08:43:50.490Z,11.45
2022-08-16T08:46:23.895Z,10.00
2022-08-16T08:49:02.096Z,10.33
2022-08-16T08:51:41.257Z,10.95
2022-08-16T08:54:18.815Z,10.10
2022-08-16T08:56:52.416Z,10.40
2022-08-16T08:59:32.950Z,10.60
2022-08-16T09:02:03.904Z,10.27
2022-08-16T09:04:47.704Z,9.48
2022-08-16T09:07:22.115Z,11.98
2022-08-16T09:10:06.465Z,10.93
2022-08-16T09:12:38.326Z,10.43
2022-08-16T09:15:14.486Z,10.77
2022-08-16T09:17:49.091Z,8.52
2022-08-16T09:20:25.941Z,8.63
2022-08-16T09:22:54.788Z,8.60
2022-08-16T09:25:34.211Z,9.82
2022-08-16T09:28:11.385Z,8.52
2022-08-16T09:30:45.660Z,8.73
2022-08-16T09:33:19.938Z,8.35
2022-08-16T09:35:53.190Z,7.82
2022-08-16T09:38:32.208Z,8.55
2022-08-16T09:41:06.073Z,8.38
2022-08-16T09:44:00.017Z,7.95
2022-08-16T09:46:45.288Z,7.03
2022-08-16T09:49:16.797Z,8.85
2022-08-16T09:51:55.619Z,8.48
2022-08-16T09:54:32.135Z,8.50
2022-08-16T09:57:00.648Z,8.57
2022-08-16T09:59:38.360Z,7.88
2022-08-16T10:02:26.197Z,7.90
2022-08-16T10:05:00.455Z,9.00
2022-08-16T10:07:56.013Z,9.07
2022-08-16T10:10:30.501Z,8.80
2022-08-16T10:13:16.179Z,7.38
2022-08-16T10:15:55.598Z,7.97
2022-08-16T10:19:00.209Z,8.23
2022-08-16T10:21:15.649Z,8.23
2022-08-16T10:23:44.274Z,7.90
2022-08-16T10:27:19.781Z,6.93
2022-08-16T10:29:10.772Z,8.25
2022-08-16T10:31:45.308Z,7.75
2022-08-16T10:34:31.460Z,8.57
2022-08-16T10:37:00.616Z,7.75
2022-08-16T10:39:40.862Z,7.47
2022-08-16T10:42:17.362Z,8.10
2022-08-16T10:44:54.605Z,7.43
2022-08-16T10:47:30.423Z,7.72
2022-08-16T10:50:05.793Z,8.10
2022-08-16T10:52:49.446Z,8.23
2022-08-16T10:58:13.670Z,8.65
2022-08-16T11:00:47.317Z,8.15
2022-08-16T11:06:12.213Z,8.13
2022-08-16T11:08:45.743Z,9.52
2022-08-16T11:11:19.822Z,7.45
2022-08-16T11:14:05.862Z,8.40
2022-08-16T11:19:33.608Z,8.35
2022-08-16T11:22:47.580Z,7.50
2022-08-16T11:26:07.387Z,7.43
2022-08-16T11:28:08.033Z,6.95
2022-08-16T11:30:39.008Z,7.50
2022-08-16T11:33:16.343Z,7.70
2022-08-16T11:35:44.769Z,8.18
2022-08-16T11:38:55.313Z,7.25
2022-08-16T11:41:20.993Z,8.15
2022-08-16T11:43:53.035Z,8.25
2022-08-16T11:46:43.236Z,9.27
2022-08-16T11:49:17.934Z,7.97
2022-08-16T11:51:45.847Z,7.30
2022-08-16T11:54:21.712Z,7.65
2022-08-16T11:56:57.373Z,8.10
2022-08-16T11:59:29.590Z,8.00
2022-08-16T12:01:59.198Z,7.70
2022-08-16T12:04:29.247Z,8.15
2022-08-16T12:07:00.582Z,7.15
2022-08-16T12:09:31.077Z,7.30
2022-08-16T12:12:03.884Z,7.63
2022-08-16T12:14:38.836Z,7.60
2022-08-16T12:17:14.319Z,7.25
2022-08-16T12:19:46.425Z,6.80
2022-08-16T12:22:18.898Z,7.18
2022-08-16T12:24:52.487Z,7.75
2022-08-16T12:27:27.954Z,7.38
2022-08-16T12:30:01.730Z,6.72
2022-08-16T12:35:12.909Z,6.60
2022-08-16T12:37:48.330Z,6.55
2022-08-16T12:40:29.073Z,6.22
2022-08-16T12:43:04.265Z,8.18
2022-08-16T12:45:35.582Z,6.28
2022-08-16T12:48:33.758Z,6.47
2022-08-16T12:51:04.658Z,6.07
2022-08-16T12:53:39.896Z,6.70
2022-08-16T12:56:11.632Z,7.60
2022-08-16T12:58:49.858Z,7.00
2022-08-16T13:01:25.955Z,7.55
2022-08-16T13:04:20.587Z,7.38
2022-08-16T13:06:48.706Z,7.70
2022-08-16T13:09:23.661Z,6.82
2022-08-16T13:12:19.274Z,7.00
2022-08-16T13:14:50.436Z,7.35
2022-08-16T13:20:07.247Z,7.45
2022-08-16T13:22:42.150Z,8.18
2022-08-16T13:25:15.046Z,7.70
2022-08-16T13:28:02.462Z,7.40
2022-08-16T13:30:42.656Z,7.35
2022-08-16T13:33:18.961Z,6.47
2022-08-16T13:35:56.480Z,7.78
2022-08-16T13:38:37.128Z,6.93
2022-08-16T13:41:12.431Z,7.13
2022-08-16T13:43:42.927Z,7.78
2022-08-16T13:46:12.408Z,6.75
2022-08-16T13:48:44.667Z,7.90
2022-08-16T13:51:18.862Z,7.20
2022-08-16T13:53:49.648Z,7.57
2022-08-16T13:56:38.198Z,6.95
2022-08-16T13:59:20.520Z,6.70
2022-08-16T14:01:59.908Z,7.70
2022-08-16T14:04:36.525Z,6.60
2022-08-16T14:07:08.858Z,6.82
2022-08-16T14:09:36.868Z,6.60
2022-08-16T14:12:40.750Z,6.93
2022-08-16T14:15:11.883Z,7.30
2022-08-16T14:18:14.934Z,8.40
2022-08-16T14:20:29.777Z,7.70
2022-08-16T14:22:59.616Z,6.78
2022-08-16T14:25:29.324Z,7.95
2022-08-16T14:27:59.552Z,6.38
2022-08-16T14:30:32.781Z,7.45
2022-08-16T14:33:01.710Z,7.10
2022-08-16T14:35:48.130Z,6.38
2022-08-16T14:38:23.728Z,8.82
2022-08-16T14:40:55.575Z,6.95
2022-08-16T14:43:24.862Z,7.22
2022-08-16T14:45:59.339Z,7.53
2022-08-16T14:48:29.214Z,8.07
2022-08-16T14:51:01.118Z,7.85
2022-08-16T14:53:32.673Z,7.55
2022-08-16T14:56:05.548Z,6.45
2022-08-16T14:58:38.159Z,7.15
2022-08-16T15:01:10.621Z,7.05
2022-08-16T15:03:44.895Z,6.20
2022-08-16T15:06:16.878Z,7.32
2022-08-16T15:08:46.954Z,6.65
2022-08-16T15:11:14.480Z,7.05
2022-08-16T15:13:44.157Z,7.15
2022-08-16T15:16:11.896Z,6.78
2022-08-16T15:18:39.525Z,6.85
2022-08-16T15:21:08.447Z,7.00
2022-08-16T15:23:41.462Z,6.80
2022-08-16T15:26:29.629Z,6.72
2022-08-16T15:29:04.054Z,7.68
2022-08-16T15:31:33.663Z,7.22
2022-08-16T15:34:05.087Z,6.93
2022-08-16T15:36:32.414Z,8.68
2022-08-16T15:39:30.515Z,7.57
2022-08-16T15:42:11.224Z,6.15
2022-08-16T15:44:52.911Z,6.95
2022-08-16T15:47:26.391Z,7.82
2022-08-16T15:49:56.297Z,7.32
2022-08-16T15:52:30.543Z,6.72
2022-08-16T15:55:12.995Z,6.95
2022-08-16T15:57:51.654Z,7.10
2022-08-16T16:00:26.481Z,8.57
2022-08-16T16:03:08.738Z,7.60
2022-08-16T16:05:40.894Z,6.95
2022-08-16T16:08:12.835Z,6.88
2022-08-16T16:10:43.490Z,7.93
2022-08-16T16:13:24.367Z,8.02
2022-08-16T16:15:55.801Z,6.97
2022-08-16T16:18:26.360Z,7.20
2022-08-16T16:20:57.395Z,7.18
2022-08-16T16:23:33.267Z,7.07
2022-08-16T16:26:06.549Z,7.28
2022-08-16T16:29:06.497Z,6.68
2022-08-16T16:31:22.072Z,7.13
2022-08-16T16:33:55.860Z,6.03
2022-08-16T16:36:29.486Z,6.90
2022-08-16T16:39:04.511Z,6.15
2022-08-16T16:41:37.200Z,7.32
2022-08-16T16:44:09.347Z,6.82
2022-08-16T16:46:56.515Z,6.60
2022-08-16T16:49:25.121Z,6.85
2022-08-16T16:52:07.004Z,6.43
2022-08-16T16:54:35.652Z,6.30
2022-08-16T16:57:30.010Z,5.93
2022-08-16T17:00:30.114Z,6.03
2022-08-16T17:02:56.520Z,6.43
2022-08-16T17:05:32.538Z,5.80
2022-08-16T17:08:00.816Z,5.70
2022-08-16T17:10:45.990Z,6.47
2022-08-16T17:13:17.176Z,5.35
2022-08-16T17:15:47.283Z,5.15
2022-08-16T17:19:14.570Z,5.43
2022-08-16T17:21:13.302Z,6.10
2022-08-16T17:23:58.027Z,6.18
2022-08-16T17:26:31.003Z,5.75
2022-08-16T17:29:02.216Z,4.93
2022-08-16T17:31:40.946Z,4.57
2022-08-16T17:34:29.560Z,4.93
2022-08-16T17:37:08.132Z,4.60
2022-08-16T17:39:45.292Z,5.25
2022-08-16T17:42:32.079Z,4.70
2022-08-16T17:44:59.669Z,5.38
2022-08-16T17:47:31.023Z,5.05
2022-08-16T17:49:58.836Z,5.07
2022-08-16T17:52:35.176Z,5.22
2022-08-16T17:55:23.539Z,8.30
2022-08-16T17:57:52.243Z,7.30
2022-08-16T18:00:23.147Z,6.70
2022-08-16T18:02:51.784Z,6.25
2022-08-16T18:05:22.465Z,5.63
2022-08-16T18:07:50.358Z,5.20
2022-08-16T18:10:32.875Z,6.63
2022-08-16T18:13:05.645Z,5.80
2022-08-16T18:15:35.321Z,7.47
2022-08-16T18:18:02.485Z,7.18
2022-08-16T18:20:53.223Z,7.53
2022-08-16T18:23:25.317Z,8.60
2022-08-16T18:25:57.698Z,8.23
2022-08-16T18:28:26.837Z,9.60
2022-08-16T18:33:31.512Z,8.07
2022-08-16T18:36:02.840Z,7.55
2022-08-16T18:38:34.829Z,7.60
2022-08-16T18:41:05.013Z,10.15
2022-08-16T18:44:24.120Z,9.30
2022-08-16T18:46:23.287Z,16.80
2022-08-16T18:48:52.542Z,16.02
2022-08-16T18:51:24.457Z,8.35
2022-08-16T18:53:55.640Z,10.85
2022-08-16T18:56:25.017Z,10.75
2022-08-16T18:59:14.409Z,8.32
2022-08-16T19:01:44.277Z,9.75
2022-08-16T19:04:48.114Z,12.70
2022-08-16T19:07:03.189Z,9.05
2022-08-16T19:12:04.870Z,10.65
2022-08-16T19:14:34.697Z,9.77
2022-08-16T19:17:05.364Z,17.42
2022-08-16T19:19:37.328Z,10.73
2022-08-16T19:22:06.198Z,13.80
2022-08-16T19:24:35.655Z,13.30
2022-08-16T19:27:07.228Z,11.30
2022-08-16T19:29:34.733Z,10.65
2022-08-16T19:32:06.319Z,9.80
2022-08-16T19:34:33.621Z,10.65
2022-08-16T19:37:05.910Z,10.25
2022-08-16T19:39:36.576Z,8.77
2022-08-16T19:42:16.131Z,9.30
2022-08-16T19:44:46.717Z,10.10
2022-08-16T19:47:16.789Z,9.85
2022-08-16T19:49:46.716Z,9.77
2022-08-16T19:52:30.399Z,11.20
2022-08-16T19:55:08.110Z,10.02
2022-08-16T19:57:45.782Z,10.02
2022-08-16T20:00:18.370Z,8.75
2022-08-16T20:02:52.372Z,9.73
2022-08-16T20:05:27.068Z,9.27
2022-08-16T20:08:04.337Z,8.50
2022-08-16T20:10:32.450Z,9.90
2022-08-16T20:13:02.295Z,9.18
2022-08-16T20:15:35.851Z,9.60
2022-08-16T20:18:22.834Z,9.35
2022-08-16T20:20:58.570Z,9.60
2022-08-16T20:23:28.352Z,10.95
2022-08-16T20:25:57.791Z,9.80
2022-08-16T20:28:40.729Z,11.93
2022-08-16T20:31:19.497Z,11.43
2022-08-16T20:33:50.727Z,10.82
2022-08-16T20:36:24.366Z,9.68
2022-08-16T20:38:52.669Z,10.30
2022-08-16T20:41:24.400Z,10.95
2022-08-16T20:46:26.842Z,10.70
2022-08-16T20:48:56.562Z,10.90
2022-08-16T20:51:25.887Z,11.40
2022-08-16T20:53:58.275Z,11.00
2022-08-16T20:56:25.404Z,12.13
2022-08-16T20:58:52.645Z,10.48
2022-08-16T21:01:22.467Z,11.77
2022-08-16T21:03:51.910Z,12.35
2022-08-16T21:06:21.176Z,10.77
2022-08-16T21:08:53.183Z,12.07
2022-08-16T21:11:24.209Z,9.93
2022-08-16T21:14:00.588Z,11.65
2022-08-16T21:16:32.600Z,10.75
2022-08-16T21:19:02.729Z,11.52
2022-08-16T21:21:33.694Z,10.98
2022-08-16T21:24:04.581Z,11.38
2022-08-16T21:26:38.837Z,11.57
2022-08-16T21:29:11.220Z,12.20
2022-08-16T21:31:45.034Z,10.73
2022-08-16T21:34:12.286Z,11.15
2022-08-16T21:36:39.640Z,12.93
2022-08-16T21:39:09.167Z,12.05
2022-08-16T21:41:38.782Z,12.25
2022-08-16T21:44:08.164Z,12.75
2022-08-16T21:46:40.225Z,11.70
2022-08-16T21:49:07.489Z,12.00
2022-08-16T21:51:36.937Z,12.10
2022-08-16T21:54:04.525Z,11.55
2022-08-16T21:56:34.189Z,12.50
2022-08-16T21:59:10.887Z,11.90
2022-08-16T22:01:42.583Z,11.50
2022-08-16T22:04:37.854Z,13.35
2022-08-16T22:07:01.589Z,12.15
2022-08-16T22:09:31.451Z,11.93
2022-08-16T22:12:00.929Z,11.88
2022-08-16T22:14:30.827Z,12.95
2022-08-16T22:17:00.412Z,13.02
2022-08-16T22:19:27.476Z,13.35
2022-08-16T22:22:00.013Z,12.88
2022-08-16T22:24:27.294Z,12.85
2022-08-16T22:26:54.491Z,13.07
2022-08-16T22:29:21.936Z,12.60
2022-08-16T22:31:51.540Z,12.13
2022-08-16T22:34:21.406Z,12.80
2022-08-16T22:36:51.610Z,13.55
2022-08-16T22:39:23.724Z,13.60
2022-08-16T22:41:51.221Z,12.73
2022-08-16T22:44:23.877Z,12.73
2022-08-16T22:46:51.206Z,12.63
2022-08-16T22:49:21.001Z,12.13
2022-08-16T22:51:50.202Z,12.70
2022-08-16T22:54:40.954Z,12.40
2022-08-16T22:59:41.765Z,14.27
2022-08-16T23:02:14.902Z,13.20
2022-08-16T23:04:44.767Z,13.18
2022-08-16T23:07:14.155Z,11.85
2022-08-16T23:09:43.514Z,13.15
2022-08-16T23:14:48.337Z,12.90
2022-08-16T23:17:20.901Z,13.50
2022-08-16T23:19:52.911Z,13.20
2022-08-16T23:22:24.573Z,14.50
2022-08-16T23:24:56.989Z,13.95
2022-08-16T23:27:26.788Z,12.93
2022-08-16T23:29:53.927Z,13.15
2022-08-16T23:32:28.070Z,12.93
2022-08-16T23:37:27.939Z,15.05
2022-08-16T23:42:52.339Z,14.73
2022-08-16T23:45:17.653Z,14.52
2022-08-16T23:47:45.046Z,15.45
2022-08-16T23:50:14.727Z,13.68
2022-08-16T23:53:01.418Z,13.95
2022-08-16T23:55:43.593Z,13.27
2022-08-16T23:58:15.730Z,13.88
